Time;durP1;ratioP1;P1;durP2;ratioP2;P2;SDS_P1;SDS_P2;PMS_P1;PMS_P2;Temp;Humidity;BMP_temperature;BMP_pressure;BME280_temperature;BME280_humidity;BME280_pressure;Samples;Min_cycle;Max_cycle;Signal;HPM_P1;HPM_P2
2022/04/28 00:02:24;;;;;;;13.00;3.97;;;7.70;88.50;;;;;;5080589;28;20193;-72
2022/04/28 00:04:49;;;;;;;12.57;4.13;;;7.70;88.80;;;;;;5065728;28;20039;-72
2022/04/28 00:07:15;;;;;;;11.70;3.50;;;7.60;89.00;;;;;;5082462;28;20192;-72
2022/04/28 00:09:41;;;;;;;14.32;4.80;;;7.50;89.10;;;;;;5065619;28;20020;-72
2022/04/28 00:12:08;;;;;;;14.10;4.30;;;7.50;89.50;;;;;;5065544;28;20200;-71
2022/04/28 00:14:34;;;;;;;12.20;4.03;;;7.50;89.70;;;;;;5082347;28;20059;-71
2022/04/28 00:17:00;;;;;;;16.95;4.30;;;7.40;89.80;;;;;;5082567;28;20325;-71
2022/04/28 00:19:26;;;;;;;13.18;3.92;;;7.40;90.00;;;;;;5084288;28;20091;-72
2022/04/28 00:21:51;;;;;;;12.88;4.30;;;7.40;90.00;;;;;;5052831;28;20177;-71
2022/04/28 00:24:17;;;;;;;13.15;3.92;;;7.30;90.10;;;;;;5052582;28;20016;-71
2022/04/28 00:26:42;;;;;;;16.88;4.20;;;7.30;90.20;;;;;;5053155;28;20062;-73
2022/04/28 00:29:08;;;;;;;17.25;4.18;;;7.30;90.20;;;;;;5086396;28;20277;-70
2022/04/28 00:31:34;;;;;;;17.55;4.38;;;7.30;90.30;;;;;;5086324;28;20065;-71
2022/04/28 00:34:00;;;;;;;11.65;3.78;;;7.20;90.40;;;;;;5086083;28;20028;-71
2022/04/28 00:36:26;;;;;;;12.50;3.80;;;7.20;90.40;;;;;;5086155;28;20020;-71
2022/04/28 00:38:51;;;;;;;14.55;4.07;;;7.20;90.50;;;;;;5086063;28;20030;-72
2022/04/28 00:41:17;;;;;;;20.42;4.00;;;7.10;90.50;;;;;;5086050;28;20030;-71
2022/04/28 00:43:52;;;;;;;11.05;4.18;;;7.10;90.70;;;;;;5086022;28;20020;-72
2022/04/28 00:46:19;;;;;;;16.67;4.47;;;7.10;91.10;;;;;;5085784;28;20020;-73
2022/04/28 00:51:31;;;;;;;15.43;4.43;;;7.00;91.00;;;;;;5072018;28;20019;-71
2022/04/28 00:53:58;;;;;;;12.25;4.22;;;7.00;91.10;;;;;;5069038;28;20028;-72
2022/04/28 00:56:25;;;;;;;12.57;4.10;;;6.90;91.20;;;;;;5068996;28;20078;-72
2022/04/28 00:58:51;;;;;;;15.82;3.72;;;6.90;91.30;;;;;;5069280;28;20020;-72
2022/04/28 01:01:17;;;;;;;12.82;3.85;;;6.90;91.40;;;;;;5086943;28;20233;-72
2022/04/28 01:03:46;;;;;;;15.30;4.47;;;6.90;91.50;;;;;;5066696;28;20034;-72
2022/04/28 01:06:12;;;;;;;13.20;4.10;;;6.80;91.60;;;;;;5085297;28;20315;-72
2022/04/28 01:08:40;;;;;;;11.05;3.92;;;6.80;91.70;;;;;;5085427;28;20243;-73
2022/04/28 01:11:06;;;;;;;11.63;4.15;;;6.80;91.90;;;;;;5085594;28;20017;-72
2022/04/28 01:13:32;;;;;;;11.27;5.03;;;6.70;92.00;;;;;;5085508;28;20031;-71
2022/04/28 01:15:58;;;;;;;12.50;3.97;;;6.70;92.00;;;;;;5068485;28;20033;-73
2022/04/28 01:18:24;;;;;;;12.25;4.15;;;6.70;92.10;;;;;;5085139;28;20017;-73
2022/04/28 01:20:50;;;;;;;14.10;3.30;;;6.70;92.20;;;;;;5086506;28;20031;-73
2022/04/28 01:23:15;;;;;;;17.25;3.85;;;6.70;92.30;;;;;;5068300;28;20189;-71
2022/04/28 01:25:41;;;;;;;8.77;3.75;;;6.70;92.40;;;;;;5068182;28;20434;-72
2022/04/28 01:28:07;;;;;;;17.80;4.05;;;6.70;92.50;;;;;;5068637;28;20091;-71
2022/04/28 01:30:36;;;;;;;9.43;3.72;;;6.70;92.50;;;;;;5084418;28;20028;-72
2022/04/28 01:33:01;;;;;;;13.90;3.67;;;6.70;92.60;;;;;;5084672;28;20043;-70
2022/04/28 01:35:27;;;;;;;14.20;3.70;;;6.70;92.60;;;;;;5085182;28;20047;-72
2022/04/28 01:37:53;;;;;;;16.20;3.90;;;6.80;92.50;;;;;;5068196;28;20024;-72
2022/04/28 01:40:20;;;;;;;16.55;4.18;;;6.80;92.60;;;;;;5084886;28;20016;-71
2022/04/28 01:42:47;;;;;;;8.88;3.22;;;6.80;92.70;;;;;;5068334;28;20021;-72
2022/04/28 01:45:14;;;;;;;15.52;4.10;;;6.70;92.60;;;;;;5084803;28;20016;-71
2022/04/28 01:47:40;;;;;;;10.77;4.07;;;6.70;92.70;;;;;;5067430;28;20067;-73
2022/04/28 01:50:08;;;;;;;12.85;3.95;;;6.70;92.80;;;;;;5067948;28;20016;-72
2022/04/28 01:55:19;;;;;;;11.50;3.88;;;6.70;92.90;;;;;;5071012;28;20020;-72
2022/04/28 01:57:46;;;;;;;12.70;3.78;;;6.70;92.90;;;;;;5084883;28;20016;-72
2022/04/28 02:00:12;;;;;;;14.30;3.60;;;6.70;92.90;;;;;;5085644;28;20032;-72
2022/04/28 02:02:38;;;;;;;14.35;3.50;;;6.70;93.00;;;;;;5083248;28;20016;-73
2022/04/28 02:05:06;;;;;;;13.60;3.78;;;6.70;93.10;;;;;;5085262;28;20009;-70
2022/04/28 02:07:32;;;;;;;11.25;3.60;;;6.70;93.10;;;;;;5084481;28;20223;-71
2022/04/28 02:09:58;;;;;;;12.45;3.60;;;6.60;93.20;;;;;;5067731;28;20028;-72
2022/04/28 02:12:25;;;;;;;11.38;3.88;;;6.60;93.20;;;;;;5067553;28;20031;-72
2022/04/28 02:14:52;;;;;;;11.77;3.53;;;6.60;93.20;;;;;;5068052;28;20016;-72
2022/04/28 02:17:23;;;;;;;7.35;3.55;;;6.60;93.20;;;;;;5083992;28;20066;-73
2022/04/28 02:19:48;;;;;;;15.00;5.22;;;6.60;93.40;;;;;;5084379;28;20130;-72
2022/04/28 02:22:15;;;;;;;15.40;3.90;;;6.60;93.40;;;;;;5066944;28;20024;-70
2022/04/28 02:24:40;;;;;;;12.18;4.00;;;6.60;93.40;;;;;;5085274;28;20235;-71
2022/04/28 02:27:06;;;;;;;9.90;3.83;;;6.60;93.80;;;;;;5084020;28;20024;-71
2022/04/28 02:29:33;;;;;;;5.85;3.42;;;6.50;93.60;;;;;;5067498;28;20134;-73
2022/04/28 02:31:59;;;;;;;8.23;3.70;;;6.60;93.70;;;;;;5083831;28;20032;-72
2022/04/28 02:34:24;;;;;;;12.40;4.00;;;6.50;93.70;;;;;;5084085;28;20020;-72
2022/04/28 02:36:50;;;;;;;14.50;4.10;;;6.50;93.70;;;;;;5084936;28;20021;-72
2022/04/28 02:39:17;;;;;;;8.02;3.30;;;6.50;93.70;;;;;;5083987;28;20243;-72
2022/04/28 02:41:44;;;;;;;12.05;3.90;;;6.50;93.80;;;;;;5085021;28;20080;-72
2022/04/28 02:44:12;;;;;;;10.98;3.85;;;6.50;93.80;;;;;;5084748;28;20016;-72
2022/04/28 02:46:38;;;;;;;10.57;3.65;;;6.50;93.80;;;;;;5067190;28;20028;-71
2022/04/28 02:49:04;;;;;;;12.13;3.70;;;6.50;93.80;;;;;;5083501;28;20102;-72
2022/04/28 02:51:30;;;;;;;13.25;4.15;;;6.50;93.70;;;;;;5083469;28;20057;-71
2022/04/28 02:53:56;;;;;;;11.35;4.30;;;6.50;93.70;;;;;;5082948;28;20034;-73
2022/04/28 02:56:22;;;;;;;9.05;3.72;;;6.50;94.10;;;;;;5083358;28;20021;-72
2022/04/28 02:58:50;;;;;;;11.68;3.92;;;6.50;93.80;;;;;;5083349;28;20300;-73
2022/04/28 03:01:16;;;;;;;11.80;3.80;;;6.50;93.80;;;;;;5084553;28;20022;-72
2022/04/28 03:03:41;;;;;;;16.35;4.00;;;6.50;93.90;;;;;;5081287;28;20024;-72
2022/04/28 03:11:41;;;;;;;13.38;4.93;;;6.40;94.10;;;;;;5069349;28;20017;-72
2022/04/28 03:14:08;;;;;;;23.23;4.57;;;6.30;94.50;;;;;;5049946;28;20017;-73
2022/04/28 03:16:35;;;;;;;12.95;4.75;;;6.30;94.20;;;;;;5083046;28;20020;-71
2022/04/28 03:19:01;;;;;;;10.90;3.88;;;6.30;94.60;;;;;;5066578;28;20028;-72
2022/04/28 03:21:27;;;;;;;12.15;4.60;;;6.20;94.40;;;;;;5082658;28;20024;-72
2022/04/28 03:23:53;;;;;;;9.77;3.70;;;6.30;94.40;;;;;;5082701;28;20235;-72
2022/04/28 03:26:19;;;;;;;18.98;4.80;;;6.30;94.40;;;;;;5082940;28;20028;-73
2022/04/28 03:28:45;;;;;;;6.85;3.42;;;6.20;94.50;;;;;;5083113;28;20043;-73
2022/04/28 03:31:11;;;;;;;17.35;4.18;;;6.20;94.50;;;;;;5084243;28;20020;-71
2022/04/28 03:33:36;;;;;;;12.43;4.78;;;6.20;94.50;;;;;;5066031;28;20313;-70
2022/04/28 03:36:50;;;;;;;7.82;3.88;;;6.20;94.60;;;;;;5084058;28;20193;-73
2022/04/28 03:38:48;;;;;;;12.98;4.88;;;6.20;94.50;;;;;;5069007;28;20016;-73
2022/04/28 03:41:14;;;;;;;15.77;5.50;;;6.20;94.60;;;;;;5066097;28;20338;-71
2022/04/28 03:43:40;;;;;;;21.23;5.05;;;6.10;94.70;;;;;;5082839;28;20215;-72
2022/04/28 03:46:05;;;;;;;18.05;4.88;;;6.10;94.90;;;;;;5082277;28;20283;-71
2022/04/28 03:48:31;;;;;;;10.73;4.00;;;6.10;95.10;;;;;;5082493;28;20048;-71
2022/04/28 03:50:57;;;;;;;14.48;4.35;;;6.20;94.90;;;;;;5083836;28;20013;-71
2022/04/28 03:53:22;;;;;;;17.33;4.55;;;6.30;94.70;;;;;;5083019;28;20304;-71
2022/04/28 03:55:48;;;;;;;8.38;4.10;;;6.30;94.60;;;;;;5065523;28;20216;-71
2022/04/28 03:58:13;;;;;;;15.02;4.22;;;6.30;94.60;;;;;;5083703;28;20028;-72
2022/04/28 04:00:39;;;;;;;14.18;4.15;;;6.20;94.50;;;;;;5065951;28;20021;-72
2022/04/28 04:03:05;;;;;;;13.50;4.40;;;6.30;94.50;;;;;;5065774;28;20016;-71
2022/04/28 04:05:32;;;;;;;16.13;3.75;;;6.30;94.50;;;;;;5082018;28;20017;-72
2022/04/28 04:07:58;;;;;;;11.50;4.22;;;6.20;94.50;;;;;;5049304;28;20032;-72
2022/04/28 04:10:23;;;;;;;14.40;4.75;;;6.40;94.40;;;;;;5065642;28;20094;-71
2022/04/28 04:12:49;;;;;;;10.80;4.20;;;6.40;94.30;;;;;;5083716;28;20307;-72
2022/04/28 04:15:15;;;;;;;10.48;3.97;;;6.40;94.20;;;;;;5065576;28;20222;-72
2022/04/28 04:17:45;;;;;;;14.93;5.15;;;6.40;94.20;;;;;;5082459;28;20044;-73
2022/04/28 04:20:11;;;;;;;11.25;4.38;;;6.40;94.20;;;;;;5082220;28;20310;-71
2022/04/28 04:22:37;;;;;;;8.40;4.22;;;6.30;94.20;;;;;;5082056;28;20272;-71
2022/04/28 04:25:04;;;;;;;15.02;4.60;;;6.30;94.30;;;;;;5065823;28;20024;-71
2022/04/28 04:27:30;;;;;;;18.10;5.15;;;6.30;94.50;;;;;;5065630;28;20036;-71
2022/04/28 04:29:56;;;;;;;20.65;4.90;;;6.30;94.60;;;;;;5082460;28;20021;-73
2022/04/28 04:32:25;;;;;;;13.98;4.47;;;6.30;94.60;;;;;;5083319;28;20188;-71
2022/04/28 04:34:52;;;;;;;10.50;4.22;;;6.40;94.50;;;;;;5065969;28;20021;-71
2022/04/28 04:37:18;;;;;;;11.25;3.95;;;6.50;94.30;;;;;;5082400;28;20032;-72
2022/04/28 04:39:44;;;;;;;13.50;4.20;;;6.60;94.00;;;;;;5082051;28;20023;-73
2022/04/28 04:42:11;;;;;;;14.30;4.35;;;6.60;93.90;;;;;;5083274;28;20066;-72
2022/04/28 04:44:37;;;;;;;11.43;4.43;;;6.60;93.90;;;;;;5083432;28;20021;-71
2022/04/28 04:47:03;;;;;;;12.00;4.57;;;6.60;94.00;;;;;;5081352;28;20055;-73
2022/04/28 04:49:29;;;;;;;14.68;4.55;;;6.60;94.00;;;;;;5045695;28;20037;-72
2022/04/28 04:51:55;;;;;;;10.40;4.72;;;6.60;93.90;;;;;;5045333;28;20208;-73
2022/04/28 04:54:20;;;;;;;10.70;4.70;;;6.70;93.80;;;;;;5045200;28;20321;-71
2022/04/28 04:56:46;;;;;;;13.30;4.93;;;6.70;93.70;;;;;;5045195;28;20021;-73
2022/04/28 04:59:12;;;;;;;14.48;4.18;;;6.70;93.70;;;;;;5063248;28;20032;-72
2022/04/28 05:01:38;;;;;;;12.30;4.20;;;6.80;93.60;;;;;;5045248;28;20091;-72
2022/04/28 05:04:04;;;;;;;10.40;4.30;;;6.80;93.50;;;;;;5062870;28;20025;-73
2022/04/28 05:06:30;;;;;;;17.15;5.07;;;6.80;93.50;;;;;;5061646;28;20365;-71
2022/04/28 05:08:56;;;;;;;12.55;4.45;;;6.80;93.50;;;;;;5048943;28;20074;-72
2022/04/28 05:11:22;;;;;;;17.45;4.28;;;6.80;93.50;;;;;;5032171;28;20024;-71
2022/04/28 05:13:48;;;;;;;12.65;4.60;;;6.80;93.50;;;;;;5065076;28;20079;-71
2022/04/28 05:16:14;;;;;;;15.32;4.90;;;6.80;93.60;;;;;;5065525;28;20083;-71
2022/04/28 05:18:39;;;;;;;11.63;5.40;;;6.80;93.60;;;;;;5048611;28;20024;-73
2022/04/28 05:21:05;;;;;;;15.77;5.13;;;6.70;93.70;;;;;;5048680;28;20017;-73
2022/04/28 05:23:30;;;;;;;28.17;5.22;;;6.70;93.70;;;;;;5031750;28;20211;-73
2022/04/28 05:25:56;;;;;;;10.95;3.92;;;6.80;93.50;;;;;;5064869;28;20312;-71
2022/04/28 05:28:26;;;;;;;13.20;4.47;;;6.90;93.40;;;;;;5065052;28;20086;-72
2022/04/28 05:30:54;;;;;;;15.00;4.07;;;6.90;93.50;;;;;;5048767;28;20017;-71
2022/04/28 05:33:19;;;;;;;8.90;4.10;;;6.90;93.50;;;;;;5064723;28;20059;-72
2022/04/28 05:35:45;;;;;;;11.15;4.38;;;6.90;93.60;;;;;;5064679;28;20017;-72
2022/04/28 05:38:11;;;;;;;10.35;4.78;;;6.90;93.50;;;;;;5048294;28;20300;-72
2022/04/28 05:40:40;;;;;;;13.43;4.68;;;6.90;93.50;;;;;;5047981;28;20025;-72
2022/04/28 05:45:52;;;;;;;11.52;4.75;;;7.00;93.30;;;;;;5064664;28;20013;-71
2022/04/28 05:48:19;;;;;;;8.38;4.32;;;7.00;93.30;;;;;;5058061;28;20398;-72
2022/04/28 05:50:45;;;;;;;16.00;5.07;;;7.00;93.40;;;;;;5084198;28;20036;-72
2022/04/28 05:53:11;;;;;;;18.85;5.53;;;7.00;93.40;;;;;;5067397;28;20060;-72
2022/04/28 05:55:38;;;;;;;17.67;5.07;;;7.10;93.50;;;;;;5067415;28;20021;-71
2022/04/28 05:58:04;;;;;;;13.18;5.40;;;7.20;93.60;;;;;;5067600;28;20025;-72
2022/04/28 06:00:31;;;;;;;9.82;5.38;;;7.20;93.20;;;;;;5084120;28;20035;-73
2022/04/28 06:02:56;;;;;;;18.25;5.38;;;7.20;93.20;;;;;;5084044;28;20034;-71
2022/04/28 06:05:22;;;;;;;18.33;4.90;;;7.20;93.30;;;;;;5085249;28;20079;-74
2022/04/28 06:07:49;;;;;;;16.02;6.00;;;7.30;93.20;;;;;;5065505;28;20074;-73
2022/04/28 06:10:15;;;;;;;16.33;5.47;;;7.40;93.10;;;;;;5084063;28;20023;-71
2022/04/28 06:12:41;;;;;;;12.00;4.75;;;7.50;92.90;;;;;;5067474;28;20032;-71
2022/04/28 06:15:08;;;;;;;12.25;4.20;;;7.50;92.80;;;;;;5067102;28;20031;-72
2022/04/28 06:17:33;;;;;;;15.27;4.95;;;7.60;92.90;;;;;;5084500;28;20025;-71
2022/04/28 06:19:59;;;;;;;14.55;4.57;;;7.70;92.70;;;;;;5083793;28;20103;-71
2022/04/28 06:22:25;;;;;;;17.00;4.90;;;7.70;92.70;;;;;;5083451;28;20025;-72
2022/04/28 06:24:53;;;;;;;13.40;4.20;;;7.70;92.60;;;;;;5083851;28;20027;-72
2022/04/28 06:27:20;;;;;;;15.90;4.43;;;7.70;92.60;;;;;;5067280;28;20242;-73
2022/04/28 06:29:48;;;;;;;11.80;4.80;;;7.70;92.60;;;;;;5083949;28;20087;-70
2022/04/28 06:32:16;;;;;;;14.02;4.78;;;7.80;92.60;;;;;;5068239;28;20021;-71
2022/04/28 06:34:43;;;;;;;12.18;5.15;;;7.90;92.80;;;;;;5083784;28;20016;-72
2022/04/28 06:37:09;;;;;;;18.80;4.88;;;8.00;92.40;;;;;;5083730;28;20028;-70
2022/04/28 06:39:34;;;;;;;13.25;5.32;;;8.10;92.20;;;;;;5083675;28;20088;-71
2022/04/28 06:42:01;;;;;;;12.95;4.85;;;8.10;92.20;;;;;;5066800;28;20024;-74
2022/04/28 06:44:26;;;;;;;12.68;4.57;;;8.20;92.10;;;;;;5083686;28;20211;-72
2022/04/28 06:46:52;;;;;;;17.05;4.55;;;8.20;92.00;;;;;;5083416;28;20120;-73
2022/04/28 06:49:18;;;;;;;14.23;5.00;;;8.30;92.00;;;;;;5083272;28;20060;-70
2022/04/28 06:51:43;;;;;;;15.77;4.82;;;8.40;92.00;;;;;;5083702;28;20024;-72
2022/04/28 06:54:09;;;;;;;26.20;5.50;;;8.50;91.80;;;;;;5083241;28;20326;-71
2022/04/28 06:56:35;;;;;;;16.63;4.80;;;8.60;91.70;;;;;;5066897;28;20024;-71
2022/04/28 06:59:00;;;;;;;17.88;5.65;;;8.80;91.50;;;;;;5066959;28;20222;-72
2022/04/28 07:01:26;;;;;;;12.85;4.50;;;8.90;91.20;;;;;;5083041;28;20040;-72
2022/04/28 07:03:52;;;;;;;17.05;4.05;;;9.00;91.20;;;;;;5066130;28;20020;-71
2022/04/28 07:06:18;;;;;;;12.32;4.18;;;9.10;90.90;;;;;;5082737;28;20307;-72
2022/04/28 07:08:44;;;;;;;14.40;4.30;;;9.20;90.70;;;;;;5064685;28;20020;-71
2022/04/28 07:11:10;;;;;;;17.40;3.63;;;9.40;90.70;;;;;;5047188;28;20095;-71
2022/04/28 07:13:37;;;;;;;11.23;3.35;;;9.40;90.30;;;;;;5064234;28;20020;-72
2022/04/28 07:16:04;;;;;;;11.25;4.20;;;9.40;90.20;;;;;;5049402;28;20017;-72
2022/04/28 07:18:30;;;;;;;11.05;3.42;;;9.60;90.00;;;;;;5054557;28;20009;-71
2022/04/28 07:20:55;;;;;;;13.25;3.35;;;9.80;90.20;;;;;;5076146;28;20024;-71
2022/04/28 07:23:21;;;;;;;9.35;3.53;;;10.00;90.10;;;;;;5064597;28;20050;-71
2022/04/28 07:25:47;;;;;;;16.45;3.30;;;10.10;88.70;;;;;;5061322;28;20044;-72
2022/04/28 07:28:14;;;;;;;10.07;3.30;;;10.20;88.00;;;;;;5028548;28;20043;-72
2022/04/28 07:30:40;;;;;;;13.35;3.65;;;10.20;87.90;;;;;;5052617;28;20058;-71
2022/04/28 07:33:07;;;;;;;14.55;3.30;;;9.90;88.20;;;;;;5059051;28;20056;-69
2022/04/28 07:35:32;;;;;;;10.20;3.40;;;9.70;88.80;;;;;;5073964;28;20092;-73
2022/04/28 07:37:58;;;;;;;11.98;3.65;;;9.60;89.50;;;;;;5082228;28;20029;-69
2022/04/28 07:40:24;;;;;;;10.20;3.60;;;9.60;90.10;;;;;;5065167;28;20025;-73
2022/04/28 07:42:49;;;;;;;14.63;3.55;;;9.70;90.10;;;;;;5082191;28;20036;-70
2022/04/28 07:45:15;;;;;;;13.18;3.70;;;9.90;90.00;;;;;;5063993;28;20048;-69
2022/04/28 07:47:41;;;;;;;14.77;3.75;;;10.00;89.60;;;;;;5081912;28;20373;-72
2022/04/28 07:50:08;;;;;;;11.40;3.92;;;9.90;90.00;;;;;;5061031;28;20047;-71
2022/04/28 07:52:34;;;;;;;11.27;3.47;;;10.00;89.80;;;;;;5073123;28;20073;-70
2022/04/28 07:54:59;;;;;;;16.55;4.38;;;9.90;89.80;;;;;;5070029;28;20092;-73
2022/04/28 07:57:25;;;;;;;15.07;3.47;;;9.90;90.20;;;;;;5060816;28;20020;-73
2022/04/28 07:59:51;;;;;;;16.40;3.60;;;9.90;90.50;;;;;;5066801;28;20059;-71
2022/04/28 08:02:17;;;;;;;10.18;3.05;;;10.00;90.20;;;;;;5064266;28;20024;-70
2022/04/28 08:04:43;;;;;;;9.35;3.67;;;10.20;90.10;;;;;;5082510;28;20024;-71
2022/04/28 08:07:09;;;;;;;11.20;3.38;;;10.30;90.30;;;;;;5082893;28;20217;-74
2022/04/28 08:09:35;;;;;;;14.27;3.85;;;10.40;90.20;;;;;;5055072;28;20036;-71
2022/04/28 08:12:01;;;;;;;12.40;3.90;;;10.40;90.10;;;;;;5060485;28;20055;-70
2022/04/28 08:14:27;;;;;;;13.27;3.60;;;10.40;90.20;;;;;;5063501;28;20024;-72
2022/04/28 08:16:54;;;;;;;19.15;5.70;;;10.40;90.70;;;;;;5063733;28;20226;-69
2022/04/28 08:19:20;;;;;;;16.08;3.95;;;10.50;90.60;;;;;;5082065;28;20020;-73
2022/04/28 08:21:47;;;;;;;13.68;3.75;;;10.50;90.50;;;;;;5082044;28;20035;-70
2022/04/28 08:24:12;;;;;;;14.98;4.10;;;10.30;91.10;;;;;;5079921;28;20020;-73
2022/04/28 08:26:38;;;;;;;10.82;3.63;;;10.40;91.30;;;;;;5088491;28;20034;-71
2022/04/28 08:29:04;;;;;;;13.85;4.72;;;10.40;90.90;;;;;;5085354;28;20035;-73
2022/04/28 08:31:30;;;;;;;14.23;4.00;;;10.40;90.70;;;;;;5088280;28;20016;-74
2022/04/28 08:33:56;;;;;;;10.02;3.63;;;10.50;90.80;;;;;;5063810;28;20028;-76
2022/04/28 08:36:22;;;;;;;12.07;3.17;;;10.50;90.10;;;;;;5056502;28;20016;-72
2022/04/28 08:38:48;;;;;;;11.18;3.03;;;10.60;90.50;;;;;;5073233;28;20040;-70
2022/04/28 08:41:32;;;;;;;13.68;3.00;;;10.50;90.00;;;;;;5084462;28;20080;-77
2022/04/28 08:44:01;;;;;;;12.65;3.10;;;10.70;90.20;;;;;;5053787;28;20095;-74
2022/04/28 08:49:14;;;;;;;13.32;3.53;;;10.50;88.90;;;;;;5078784;28;20053;-74
2022/04/28 08:51:40;;;;;;;6.57;2.50;;;10.60;89.70;;;;;;5081800;28;20056;-76
2022/04/28 08:54:09;;;;;;;15.15;3.05;;;10.80;88.80;;;;;;5050445;28;20046;-75
2022/04/28 08:56:35;;;;;;;19.98;3.15;;;10.80;88.00;;;;;;5084634;28;20407;-75
2022/04/28 08:59:01;;;;;;;16.10;2.88;;;10.80;87.40;;;;;;5085629;28;20331;-70
2022/04/28 09:01:27;;;;;;;14.43;3.22;;;11.00;87.90;;;;;;5085962;28;20115;-71
2022/04/28 09:03:56;;;;;;;10.90;3.22;;;11.00;86.80;;;;;;5084203;28;20036;-72
2022/04/28 09:06:28;;;;;;;7.63;2.20;;;11.10;86.90;;;;;;5086490;28;20325;-72
2022/04/28 09:08:55;;;;;;;11.90;3.10;;;11.20;85.70;;;;;;5049350;28;20377;-72
2022/04/28 09:11:25;;;;;;;5.82;2.15;;;11.20;85.50;;;;;;5054717;28;20029;-73
2022/04/28 09:14:20;;;;;;;9.68;2.58;;;11.40;84.40;;;;;;5065603;28;20046;-75
2022/04/28 09:16:56;;;;;;;7.90;2.13;;;11.50;83.30;;;;;;5085488;28;20087;-76
2022/04/28 09:19:26;;;;;;;6.28;2.30;;;11.50;83.30;;;;;;5067862;28;20331;-76
2022/04/28 09:22:00;;;;;;;6.18;2.38;;;11.30;82.30;;;;;;5064460;28;20032;-74
2022/04/28 09:24:27;;;;;;;7.85;2.20;;;11.30;82.30;;;;;;5077355;28;20086;-72
2022/04/28 09:26:54;;;;;;;13.50;2.75;;;11.20;82.90;;;;;;5083891;28;20036;-75
2022/04/28 09:29:21;;;;;;;7.30;2.42;;;11.20;82.80;;;;;;5068011;28;20017;-74
2022/04/28 09:31:50;;;;;;;7.90;2.50;;;11.20;83.10;;;;;;5084197;28;20020;-73
2022/04/28 09:34:19;;;;;;;8.73;2.80;;;11.40;82.80;;;;;;5067222;28;20063;-76
2022/04/28 09:36:46;;;;;;;7.63;2.42;;;11.70;82.50;;;;;;5083847;28;20028;-74
2022/04/28 09:44:50;;;;;;;7.03;2.83;;;12.00;81.80;;;;;;5070322;28;20088;-73
2022/04/28 09:47:18;;;;;;;12.98;2.78;;;12.00;81.70;;;;;;5063590;28;20035;-76
2022/04/28 09:49:52;;;;;;;8.73;2.72;;;12.10;80.90;;;;;;5079955;28;20075;-74
2022/04/28 09:52:30;;;;;;;10.18;2.97;;;12.10;80.50;;;;;;5067757;28;20066;-72
2022/04/28 09:54:59;;;;;;;13.35;3.38;;;12.10;80.70;;;;;;5061753;28;20239;-70
2022/04/28 09:57:25;;;;;;;5.78;2.45;;;12.20;80.80;;;;;;5065843;28;20041;-70
2022/04/28 09:59:54;;;;;;;10.35;2.78;;;12.10;80.70;;;;;;5083826;28;20046;-72
2022/04/28 10:02:22;;;;;;;11.85;3.25;;;12.20;80.80;;;;;;5067068;28;20027;-72
2022/04/28 10:04:49;;;;;;;5.15;2.53;;;12.40;80.70;;;;;;5083292;28;20032;-72
2022/04/28 10:07:16;;;;;;;10.68;2.97;;;12.60;80.00;;;;;;5065785;28;20029;-70
2022/04/28 10:09:45;;;;;;;6.82;2.63;;;12.60;79.50;;;;;;5066815;28;20021;-73
2022/04/28 10:12:14;;;;;;;11.50;2.90;;;12.60;79.50;;;;;;5065751;28;20024;-76
2022/04/28 10:14:42;;;;;;;9.80;2.70;;;12.50;80.10;;;;;;5080593;28;20024;-73
2022/04/28 10:17:14;;;;;;;12.93;3.13;;;12.60;80.00;;;;;;5094399;28;20039;-71
2022/04/28 10:19:44;;;;;;;9.77;2.80;;;12.80;79.80;;;;;;5084538;28;20059;-74
2022/04/28 10:22:16;;;;;;;5.38;2.75;;;12.50;79.30;;;;;;5082348;28;20028;-72
2022/04/28 10:33:17;;;;;;;7.85;2.60;;;12.80;80.00;;;;;;5054913;28;20021;-73
2022/04/28 10:35:53;;;;;;;10.63;3.22;;;12.90;79.20;;;;;;5067134;28;20219;-75
2022/04/28 10:38:26;;;;;;;8.60;2.88;;;12.90;79.00;;;;;;5066404;28;20303;-73
2022/04/28 10:41:07;;;;;;;16.27;3.15;;;12.90;79.30;;;;;;5062861;28;20067;-73
2022/04/28 10:43:42;;;;;;;9.40;2.90;;;13.00;79.40;;;;;;5046545;28;20017;-76
2022/04/28 10:46:28;;;;;;;9.13;3.40;;;13.10;78.50;;;;;;5074223;28;20038;-72
2022/04/28 10:48:59;;;;;;;11.43;3.58;;;13.10;78.60;;;;;;5065245;28;20134;-74
2022/04/28 10:51:30;;;;;;;9.10;3.10;;;13.00;78.60;;;;;;5083066;28;20032;-73
2022/04/28 10:54:19;;;;;;;8.43;2.40;;;13.10;78.40;;;;;;5081455;28;20027;-72
2022/04/28 10:56:54;;;;;;;10.30;2.72;;;13.20;77.60;;;;;;5082566;28;20029;-71
2022/04/28 10:59:34;;;;;;;8.93;2.90;;;13.20;78.40;;;;;;5082934;28;20215;-75
2022/04/28 11:02:41;;;;;;;8.30;3.05;;;13.10;78.00;;;;;;5082105;28;20024;-74
2022/04/28 11:05:28;;;;;;;10.85;3.10;;;13.20;77.40;;;;;;5067747;28;20017;-74
2022/04/28 11:07:53;;;;;;;6.65;3.15;;;13.20;78.10;;;;;;5068094;28;20095;-74
2022/04/28 11:10:19;;;;;;;6.13;2.65;;;13.40;77.60;;;;;;5081723;28;20066;-76
2022/04/28 11:12:45;;;;;;;9.32;3.22;;;13.20;78.10;;;;;;5060908;28;20025;-74
2022/04/28 11:15:14;;;;;;;5.75;2.88;;;13.10;77.60;;;;;;5114766;28;20062;-77
2022/04/28 11:17:43;;;;;;;8.32;3.40;;;13.10;78.20;;;;;;5062410;28;20419;-76
2022/04/28 11:20:14;;;;;;;12.88;3.60;;;13.10;78.30;;;;;;5062316;28;20028;-75
2022/04/28 11:22:44;;;;;;;6.22;3.00;;;13.10;78.90;;;;;;5081489;28;20017;-71
2022/04/28 11:25:12;;;;;;;7.63;3.25;;;13.20;78.10;;;;;;5065316;28;20058;-71
2022/04/28 11:27:39;;;;;;;10.93;3.30;;;13.30;77.60;;;;;;5081819;28;20327;-77
2022/04/28 11:30:06;;;;;;;6.35;3.03;;;13.10;78.70;;;;;;5049474;28;20021;-75
2022/04/28 11:32:31;;;;;;;7.38;3.00;;;13.20;77.80;;;;;;5057882;28;20028;-76
2022/04/28 11:34:58;;;;;;;8.18;2.95;;;13.40;76.90;;;;;;5081240;28;20346;-78
2022/04/28 11:37:26;;;;;;;7.47;3.20;;;13.40;76.60;;;;;;5065279;28;20036;-74
2022/04/28 11:39:54;;;;;;;8.45;2.97;;;13.30;76.50;;;;;;5082160;28;20197;-73
2022/04/28 11:42:20;;;;;;;11.23;3.38;;;13.10;77.20;;;;;;5082105;28;20035;-73
2022/04/28 11:44:50;;;;;;;9.07;3.20;;;13.10;77.30;;;;;;5080768;28;20058;-72
2022/04/28 11:47:16;;;;;;;8.32;3.33;;;13.10;76.90;;;;;;5064916;28;20044;-78
2022/04/28 11:49:42;;;;;;;9.60;3.40;;;13.20;77.40;;;;;;5082717;28;20032;-76
2022/04/28 11:52:25;;;;;;;7.43;3.22;;;13.10;77.10;;;;;;5065229;28;20064;-75
2022/04/28 11:55:00;;;;;;;12.15;5.03;;;13.00;77.40;;;;;;5060329;28;20295;-77
2022/04/28 11:57:27;;;;;;;9.73;3.67;;;13.20;77.00;;;;;;5061779;28;20079;-75
2022/04/28 11:59:54;;;;;;;8.93;3.33;;;13.40;76.50;;;;;;5061773;28;20025;-71
2022/04/28 12:02:32;;;;;;;13.05;3.40;;;13.50;76.40;;;;;;5049962;28;20049;-74
2022/04/28 12:05:01;;;;;;;11.45;3.40;;;13.80;75.70;;;;;;5064630;28;20017;-74
2022/04/28 12:07:30;;;;;;;9.32;3.80;;;13.90;74.60;;;;;;5080809;28;20212;-72
2022/04/28 12:15:29;;;;;;;11.23;3.28;;;13.70;75.00;;;;;;5068103;28;20103;-75
2022/04/28 12:21:13;;;;;;;10.10;2.75;;;13.70;75.60;;;;;;5063907;28;20029;-73
2022/04/28 12:23:41;;;;;;;5.70;2.80;;;13.80;74.90;;;;;;5084306;28;20071;-73
2022/04/28 12:26:09;;;;;;;8.23;2.90;;;13.90;74.90;;;;;;5052520;28;20031;-73
2022/04/28 12:28:40;;;;;;;9.68;3.42;;;14.00;74.40;;;;;;5087087;28;20024;-77
2022/04/28 12:31:08;;;;;;;4.70;2.70;;;14.10;73.90;;;;;;5085430;28;20012;-76
2022/04/28 12:33:37;;;;;;;7.60;2.67;;;14.00;74.90;;;;;;5068497;28;20108;-75
2022/04/28 12:36:05;;;;;;;9.02;3.03;;;14.10;74.10;;;;;;5068903;28;20239;-75
2022/04/28 12:38:35;;;;;;;8.10;3.10;;;14.20;74.30;;;;;;5085345;28;20031;-80
2022/04/28 12:41:18;;;;;;;11.00;3.38;;;14.30;73.40;;;;;;5085138;28;20036;-71
2022/04/28 12:43:49;;;;;;;8.70;3.67;;;14.20;74.50;;;;;;5082247;28;20021;-75
2022/04/28 12:46:18;;;;;;;8.77;3.20;;;14.30;74.30;;;;;;5086586;28;20334;-73
2022/04/28 12:48:55;;;;;;;7.28;3.13;;;14.30;73.90;;;;;;5079308;28;20461;-77
2022/04/28 12:51:23;;;;;;;11.57;3.25;;;14.20;74.30;;;;;;5065172;28;20321;-74
2022/04/28 12:53:52;;;;;;;12.07;3.53;;;14.20;73.50;;;;;;5105532;28;20203;-76
2022/04/28 12:56:33;;;;;;;8.75;3.13;;;14.10;74.40;;;;;;5065934;28;20392;-75
2022/04/28 12:59:03;;;;;;;10.75;3.65;;;14.10;74.90;;;;;;5065073;28;20079;-71
2022/04/28 13:01:30;;;;;;;7.70;3.50;;;14.40;74.50;;;;;;5049235;28;20024;-74
2022/04/28 13:04:04;;;;;;;7.55;3.35;;;14.50;73.90;;;;;;5093305;28;20032;-74
2022/04/28 13:06:32;;;;;;;10.15;3.45;;;14.50;73.70;;;;;;5049183;28;20028;-71
2022/04/28 13:09:00;;;;;;;7.88;3.13;;;14.70;73.20;;;;;;5067674;28;20028;-76
2022/04/28 13:11:29;;;;;;;12.98;3.67;;;15.00;72.60;;;;;;5086067;28;20033;-73
2022/04/28 13:13:56;;;;;;;8.43;3.35;;;14.60;74.00;;;;;;5067201;28;20021;-72
2022/04/28 13:16:23;;;;;;;5.70;3.67;;;14.50;74.60;;;;;;5068782;28;20207;-71
2022/04/28 13:18:49;;;;;;;9.27;3.60;;;14.50;74.00;;;;;;5065452;28;20036;-74
2022/04/28 13:21:15;;;;;;;9.02;3.17;;;14.80;74.00;;;;;;5067884;28;20250;-73
2022/04/28 13:23:43;;;;;;;7.85;3.58;;;14.60;73.70;;;;;;5068045;28;20016;-73
2022/04/28 13:26:10;;;;;;;10.80;3.83;;;14.60;73.50;;;;;;5084475;28;20025;-74
2022/04/28 13:28:36;;;;;;;8.57;3.63;;;14.80;72.80;;;;;;5084381;28;20083;-72